createdAt,value
2023-04-30T00:02:10.026Z,10.10
2023-04-30T00:04:45.031Z,11.77
2023-04-30T00:07:12.313Z,9.47
2023-04-30T00:09:47.076Z,11.55
2023-04-30T00:12:24.034Z,10.32
2023-04-30T00:14:51.692Z,10.55
2023-04-30T00:17:32.594Z,10.63
2023-04-30T00:20:06.094Z,9.40
2023-04-30T00:22:46.030Z,12.30
2023-04-30T00:25:13.335Z,10.75
2023-04-30T00:27:49.092Z,11.82
2023-04-30T00:30:23.005Z,9.73
2023-04-30T00:32:50.060Z,9.07
2023-04-30T00:35:24.017Z,10.57
2023-04-30T00:37:51.074Z,9.10
2023-04-30T00:40:18.271Z,10.70
2023-04-30T00:42:52.040Z,11.73
2023-04-30T00:45:22.203Z,12.87
2023-04-30T00:47:58.307Z,10.97
2023-04-30T00:50:25.799Z,10.73
2023-04-30T00:53:00.032Z,10.10
2023-04-30T00:55:33.105Z,11.53
2023-04-30T00:58:08.023Z,11.97
2023-04-30T01:00:41.990Z,13.00
2023-04-30T01:03:23.209Z,12.67
2023-04-30T01:05:57.184Z,12.70
2023-04-30T01:08:33.032Z,12.30
2023-04-30T01:11:24.266Z,17.10
2023-04-30T01:14:17.077Z,13.00
2023-04-30T01:16:54.906Z,13.63
2023-04-30T01:19:53.234Z,12.77
2023-04-30T01:22:33.136Z,11.97
2023-04-30T01:25:40.367Z,14.07
2023-04-30T01:28:24.078Z,14.97
2023-04-30T01:30:58.058Z,15.07
2023-04-30T01:33:32.345Z,14.23
2023-04-30T01:36:18.197Z,14.63
2023-04-30T01:39:03.906Z,18.20
2023-04-30T01:41:49.121Z,14.87
2023-04-30T01:45:12.923Z,16.47
2023-04-30T01:48:10.088Z,15.77
2023-04-30T01:50:52.272Z,17.20
2023-04-30T01:53:45.037Z,15.17
2023-04-30T01:56:48.034Z,14.43
2023-04-30T01:59:23.023Z,15.20
2023-04-30T02:01:57.208Z,17.03
2023-04-30T02:04:40.049Z,17.90
2023-04-30T02:07:07.435Z,18.77
2023-04-30T02:09:41.089Z,16.03
2023-04-30T02:12:15.177Z,17.40
2023-04-30T02:14:49.110Z,16.30
2023-04-30T02:17:16.485Z,17.40
2023-04-30T02:19:50.079Z,19.57
2023-04-30T02:22:17.181Z,17.33
2023-04-30T02:24:51.075Z,15.77
2023-04-30T02:27:18.734Z,17.13
2023-04-30T02:29:52.328Z,20.53
2023-04-30T02:32:26.033Z,17.43
2023-04-30T02:35:00.048Z,16.07
2023-04-30T02:37:34.059Z,19.00
2023-04-30T02:40:01.327Z,23.17
2023-04-30T02:42:35.095Z,17.50
2023-04-30T02:45:02.407Z,18.97
2023-04-30T02:47:36.099Z,20.23
2023-04-30T02:50:12.568Z,19.33
2023-04-30T02:52:48.106Z,21.27
2023-04-30T02:55:22.118Z,19.97
2023-04-30T02:57:49.208Z,24.20
2023-04-30T03:00:17.472Z,21.73
2023-04-30T03:02:51.164Z,20.73
2023-04-30T03:05:25.138Z,22.43
2023-04-30T03:07:59.080Z,21.03
2023-04-30T03:10:26.188Z,19.53
2023-04-30T03:13:01.034Z,20.67
2023-04-30T03:15:35.094Z,20.33
2023-04-30T03:18:09.136Z,22.07
2023-04-30T03:20:36.448Z,23.87
2023-04-30T03:23:10.068Z,26.90
2023-04-30T03:25:44.150Z,20.03
2023-04-30T03:28:11.188Z,21.70
2023-04-30T03:30:45.090Z,23.10
2023-04-30T03:33:19.077Z,27.67
2023-04-30T03:35:53.063Z,24.43
2023-04-30T03:38:27.083Z,27.20
2023-04-30T03:41:01.058Z,24.33
2023-04-30T03:43:35.112Z,26.07
2023-04-30T03:46:02.554Z,26.73
2023-04-30T03:48:36.120Z,28.43
2023-04-30T03:51:10.131Z,23.57
2023-04-30T03:53:44.107Z,30.77
2023-04-30T03:56:11.433Z,28.67
2023-04-30T03:58:45.199Z,29.30
2023-04-30T04:01:19.129Z,26.47
2023-04-30T04:04:07.189Z,22.00
2023-04-30T04:06:41.225Z,23.53
2023-04-30T04:09:08.646Z,27.47
2023-04-30T04:11:42.066Z,22.53
2023-04-30T04:14:11.518Z,21.67
2023-04-30T04:16:45.144Z,25.50
2023-04-30T04:19:13.478Z,24.20
2023-04-30T04:21:47.082Z,21.50
2023-04-30T04:24:21.127Z,21.63
2023-04-30T04:26:55.117Z,22.03
2023-04-30T04:29:22.566Z,22.63
2023-04-30T04:31:59.664Z,28.27
2023-04-30T04:34:27.531Z,28.23
2023-04-30T04:37:02.279Z,29.87
2023-04-30T04:39:29.539Z,25.40
2023-04-30T04:41:56.923Z,26.80
2023-04-30T04:44:30.152Z,23.80
2023-04-30T04:47:04.575Z,25.73
2023-04-30T04:49:38.126Z,25.00
2023-04-30T04:52:12.098Z,29.00
2023-04-30T04:54:46.046Z,24.50
2023-04-30T04:57:20.068Z,25.67
2023-04-30T04:59:47.304Z,25.93
2023-04-30T05:02:21.098Z,24.10
2023-04-30T05:04:50.967Z,27.17
2023-04-30T05:07:25.045Z,21.77
2023-04-30T05:09:59.062Z,23.63
2023-04-30T05:12:27.991Z,23.47
2023-04-30T05:15:02.152Z,23.27
2023-04-30T05:17:30.780Z,25.77
2023-04-30T05:20:22.035Z,24.33
2023-04-30T05:22:55.818Z,24.60
2023-04-30T05:25:31.082Z,27.77
2023-04-30T05:27:58.686Z,26.03
2023-04-30T05:30:33.216Z,21.87
2023-04-30T05:33:08.157Z,21.63
2023-04-30T05:35:36.322Z,22.83
2023-04-30T05:38:11.113Z,22.70
2023-04-30T05:40:46.067Z,22.60
2023-04-30T05:43:20.099Z,21.53
2023-04-30T05:45:55.202Z,21.07
2023-04-30T05:48:35.108Z,23.17
2023-04-30T05:51:02.650Z,22.70
2023-04-30T05:53:37.088Z,26.00
2023-04-30T05:56:04.204Z,22.10
2023-04-30T05:58:38.056Z,19.17
2023-04-30T06:01:12.118Z,23.33
2023-04-30T06:03:46.291Z,20.50
2023-04-30T06:06:20.166Z,17.40
2023-04-30T06:08:54.093Z,18.23
2023-04-30T06:11:21.604Z,14.50
2023-04-30T06:13:56.120Z,17.50
2023-04-30T06:16:23.878Z,14.38
2023-04-30T06:18:57.108Z,13.65
2023-04-30T06:21:33.110Z,14.85
2023-04-30T06:24:10.042Z,13.82
2023-04-30T06:26:38.892Z,15.35
2023-04-30T06:29:13.127Z,17.27
2023-04-30T06:31:50.186Z,15.63
2023-04-30T06:34:24.127Z,15.88
2023-04-30T06:36:51.283Z,15.90
2023-04-30T06:39:25.107Z,13.23
2023-04-30T06:41:52.240Z,14.13
2023-04-30T06:44:19.750Z,16.25
2023-04-30T06:46:55.110Z,14.45
2023-04-30T06:49:22.188Z,13.90
2023-04-30T06:51:56.163Z,13.52
2023-04-30T06:54:23.231Z,12.98
2023-04-30T06:56:57.204Z,12.75
2023-04-30T06:59:25.816Z,13.52
2023-04-30T07:02:08.174Z,13.88
2023-04-30T07:04:39.349Z,12.00
2023-04-30T07:07:18.583Z,11.65
2023-04-30T07:09:46.431Z,13.23
2023-04-30T07:12:20.150Z,13.93
2023-04-30T07:15:00.777Z,14.00
2023-04-30T07:17:38.404Z,12.93
2023-04-30T07:20:19.233Z,12.00
2023-04-30T07:22:49.327Z,11.27
2023-04-30T07:25:24.139Z,12.27
2023-04-30T07:27:53.541Z,12.60
2023-04-30T07:30:29.223Z,11.75
2023-04-30T07:33:03.679Z,13.15
2023-04-30T07:35:39.488Z,11.15
2023-04-30T07:38:15.706Z,12.75
2023-04-30T07:40:50.362Z,11.93
2023-04-30T07:43:25.224Z,12.82
2023-04-30T07:46:00.310Z,12.50
2023-04-30T07:48:42.212Z,17.85
2023-04-30T07:51:16.220Z,12.20
2023-04-30T07:53:44.255Z,10.63
2023-04-30T07:56:18.646Z,10.30
2023-04-30T07:58:46.724Z,11.13
2023-04-30T08:01:21.307Z,10.93
2023-04-30T08:03:55.333Z,11.05
2023-04-30T08:06:34.335Z,13.30
2023-04-30T08:09:08.274Z,9.77
2023-04-30T08:11:44.281Z,9.55
2023-04-30T08:14:12.162Z,11.90
2023-04-30T08:16:46.317Z,9.32
2023-04-30T08:19:21.241Z,10.45
2023-04-30T08:21:57.626Z,10.82
2023-04-30T08:24:25.290Z,9.52
2023-04-30T08:26:59.108Z,9.57
2023-04-30T08:29:28.853Z,8.98
2023-04-30T08:32:03.171Z,9.73
2023-04-30T08:34:30.863Z,7.68
2023-04-30T08:37:06.085Z,8.07
2023-04-30T08:39:41.161Z,9.50
2023-04-30T08:42:20.114Z,6.95
2023-04-30T08:44:55.131Z,5.43
2023-04-30T08:47:29.161Z,7.82
2023-04-30T08:50:04.171Z,7.47
2023-04-30T08:52:36.163Z,4.88
2023-04-30T08:55:15.123Z,5.45
2023-04-30T08:57:44.584Z,5.80
2023-04-30T09:00:19.204Z,5.32
2023-04-30T09:02:56.266Z,5.25
2023-04-30T09:05:23.531Z,5.70
2023-04-30T09:10:38.180Z,4.68
2023-04-30T09:13:15.127Z,4.55
2023-04-30T09:15:49.119Z,3.80
2023-04-30T09:18:25.141Z,5.78
2023-04-30T09:21:02.224Z,3.97
2023-04-30T09:23:38.126Z,4.55
2023-04-30T09:26:05.499Z,4.50
2023-04-30T09:28:40.106Z,5.18
2023-04-30T09:31:21.785Z,4.82
2023-04-30T09:33:57.164Z,5.32
2023-04-30T09:36:24.311Z,5.13
2023-04-30T09:38:51.937Z,4.43
2023-04-30T09:41:34.155Z,4.82
2023-04-30T09:44:02.013Z,5.80
2023-04-30T09:46:44.229Z,5.63
2023-04-30T09:49:11.806Z,7.18
2023-04-30T09:52:05.170Z,6.93
2023-04-30T09:54:32.973Z,9.05
2023-04-30T09:57:10.160Z,9.02
2023-04-30T09:59:39.698Z,5.85
2023-04-30T10:02:16.190Z,5.60
2023-04-30T10:04:52.159Z,7.93
2023-04-30T10:07:23.964Z,8.45
2023-04-30T10:10:06.196Z,7.95
2023-04-30T10:13:07.697Z,5.75
2023-04-30T10:15:59.230Z,5.43
2023-04-30T10:18:50.126Z,5.40
2023-04-30T10:21:29.156Z,5.32
2023-04-30T10:24:04.156Z,4.47
2023-04-30T10:26:32.602Z,6.03
2023-04-30T10:29:09.197Z,5.82
2023-04-30T10:31:44.268Z,8.40
2023-04-30T10:34:49.136Z,5.32
2023-04-30T10:37:53.140Z,6.03
2023-04-30T10:40:23.645Z,4.88
2023-04-30T10:43:01.240Z,4.93
2023-04-30T10:45:45.531Z,3.78
2023-04-30T10:48:33.140Z,4.05
2023-04-30T10:51:00.889Z,4.10
2023-04-30T10:53:38.150Z,3.72
2023-04-30T10:56:12.103Z,5.60
2023-04-30T10:58:48.139Z,5.05
2023-04-30T11:01:25.357Z,3.80
2023-04-30T11:04:18.224Z,5.10
2023-04-30T11:07:16.135Z,4.47
2023-04-30T11:09:55.355Z,5.93
2023-04-30T11:12:35.241Z,5.70
2023-04-30T11:15:14.762Z,3.45
2023-04-30T11:18:02.186Z,4.10
2023-04-30T11:20:30.627Z,4.25
2023-04-30T11:23:40.091Z,4.47
2023-04-30T11:26:09.990Z,6.05
2023-04-30T11:28:45.270Z,5.45
2023-04-30T11:31:15.331Z,3.78
2023-04-30T11:33:51.690Z,4.30
2023-04-30T11:36:20.938Z,4.00
2023-04-30T11:38:55.143Z,4.10
2023-04-30T11:41:29.208Z,3.90
2023-04-30T11:44:03.195Z,5.07
2023-04-30T11:46:50.244Z,3.92
2023-04-30T11:49:27.178Z,5.65
2023-04-30T11:51:54.494Z,3.95
2023-04-30T11:54:29.440Z,3.63
2023-04-30T11:57:03.965Z,3.72
2023-04-30T11:59:47.218Z,5.78
2023-04-30T12:02:25.350Z,7.80
2023-04-30T12:04:52.501Z,4.70
2023-04-30T12:07:27.200Z,4.20
2023-04-30T12:09:57.067Z,5.22
2023-04-30T12:12:39.207Z,4.65
2023-04-30T12:15:30.198Z,5.72
2023-04-30T12:17:59.745Z,6.50
2023-04-30T12:20:37.182Z,4.38
2023-04-30T12:23:04.534Z,6.68
2023-04-30T12:30:04.775Z,5.30
2023-04-30T12:32:44.255Z,4.55
2023-04-30T12:35:26.222Z,4.55
2023-04-30T12:38:14.211Z,4.00
2023-04-30T12:40:51.118Z,4.20
2023-04-30T12:43:25.183Z,4.50
2023-04-30T12:46:13.220Z,25.38
2023-04-30T12:48:52.208Z,5.03
2023-04-30T12:51:27.178Z,5.05
2023-04-30T12:54:01.237Z,5.22
2023-04-30T12:56:34.142Z,4.57
2023-04-30T12:59:08.220Z,6.35
2023-04-30T13:01:54.248Z,5.22
2023-04-30T13:04:28.220Z,4.00
2023-04-30T13:06:55.212Z,4.90
2023-04-30T13:09:29.166Z,4.50
2023-04-30T13:11:56.345Z,3.83
2023-04-30T13:14:30.221Z,5.10
2023-04-30T13:16:57.182Z,3.83
2023-04-30T13:19:24.493Z,4.20
2023-04-30T13:21:58.200Z,3.50
2023-04-30T13:24:32.260Z,4.55
2023-04-30T13:27:07.168Z,3.50
2023-04-30T13:29:34.190Z,3.65
2023-04-30T13:32:09.179Z,4.90
2023-04-30T13:34:36.236Z,4.63
2023-04-30T13:37:10.239Z,3.90
2023-04-30T13:39:37.251Z,3.90
2023-04-30T13:42:11.170Z,4.63
2023-04-30T13:44:45.272Z,6.00
2023-04-30T13:47:26.286Z,11.77
2023-04-30T13:50:07.223Z,13.45
2023-04-30T13:52:41.292Z,5.45
2023-04-30T13:55:09.305Z,6.75
2023-04-30T13:57:43.219Z,9.43
2023-04-30T14:00:11.270Z,7.78
2023-04-30T14:02:38.483Z,6.72
2023-04-30T14:05:12.220Z,9.68
2023-04-30T14:07:39.304Z,8.90
2023-04-30T14:10:14.212Z,3.83
2023-04-30T14:12:48.187Z,8.85
2023-04-30T14:15:22.449Z,8.07
2023-04-30T14:17:56.299Z,8.70
2023-04-30T14:20:30.247Z,4.60
2023-04-30T14:23:05.390Z,3.90
2023-04-30T14:25:39.299Z,3.15
2023-04-30T14:28:13.225Z,4.40
2023-04-30T14:30:47.233Z,4.68
2023-04-30T14:33:14.890Z,3.97
2023-04-30T14:35:48.272Z,4.47
2023-04-30T14:38:23.633Z,12.27
2023-04-30T14:40:57.229Z,5.40
2023-04-30T14:43:31.303Z,4.47
2023-04-30T14:46:05.359Z,4.57
2023-04-30T14:48:45.545Z,4.13
2023-04-30T14:51:19.256Z,3.58
2023-04-30T14:53:46.290Z,4.18
2023-04-30T14:56:13.408Z,4.75
2023-04-30T14:58:47.249Z,3.53
2023-04-30T15:01:21.313Z,3.67
2023-04-30T15:03:55.293Z,4.43
2023-04-30T15:06:22.512Z,3.50
2023-04-30T15:08:50.162Z,4.28
2023-04-30T15:11:25.274Z,10.13
2023-04-30T15:14:02.230Z,5.90
2023-04-30T15:16:36.239Z,7.13
2023-04-30T15:19:03.930Z,3.50
2023-04-30T15:21:38.323Z,3.35
2023-04-30T15:24:05.868Z,3.00
2023-04-30T15:26:39.242Z,3.47
2023-04-30T15:29:13.275Z,5.30
2023-04-30T15:31:53.255Z,7.43
2023-04-30T15:34:22.844Z,3.55
2023-04-30T15:36:50.421Z,4.40
2023-04-30T15:39:25.253Z,3.60
2023-04-30T15:41:52.551Z,7.47
2023-04-30T15:44:19.917Z,3.85
2023-04-30T15:46:54.312Z,5.28
2023-04-30T15:49:28.402Z,7.00
2023-04-30T15:52:03.303Z,5.50
2023-04-30T15:54:37.079Z,3.88
2023-04-30T15:57:12.254Z,4.57
2023-04-30T15:59:46.273Z,3.35
2023-04-30T16:02:39.373Z,3.80
2023-04-30T16:05:17.790Z,4.60
2023-04-30T16:07:54.280Z,4.95
2023-04-30T16:10:23.422Z,3.70
2023-04-30T16:12:57.279Z,4.50
2023-04-30T16:15:24.928Z,3.00
2023-04-30T16:17:58.297Z,4.75
2023-04-30T16:20:27.407Z,4.00
2023-04-30T16:22:55.876Z,5.38
2023-04-30T16:25:31.278Z,3.60
2023-04-30T16:28:05.294Z,3.67
2023-04-30T16:30:33.934Z,21.58
2023-04-30T16:33:07.511Z,3.78
2023-04-30T16:35:36.035Z,4.07
2023-04-30T16:38:10.248Z,3.30
2023-04-30T16:40:45.270Z,4.80
2023-04-30T16:43:19.253Z,11.07
2023-04-30T16:45:53.245Z,5.20
2023-04-30T16:48:33.251Z,7.53
2023-04-30T16:51:00.454Z,4.40
2023-04-30T16:53:34.263Z,9.05
2023-04-30T16:56:01.590Z,5.43
2023-04-30T16:58:35.339Z,7.97
2023-04-30T17:01:09.321Z,6.38
2023-04-30T17:03:43.366Z,4.18
2023-04-30T17:06:20.299Z,4.95
2023-04-30T17:08:54.272Z,5.35
2023-04-30T17:11:22.497Z,4.47
2023-04-30T17:13:56.286Z,6.85
2023-04-30T17:16:23.841Z,4.68
2023-04-30T17:18:57.322Z,8.77
2023-04-30T17:21:33.463Z,3.40
2023-04-30T17:24:08.283Z,2.92
2023-04-30T17:26:35.596Z,4.70
2023-04-30T17:29:09.235Z,4.13
2023-04-30T17:31:36.310Z,5.82
2023-04-30T17:34:10.291Z,3.17
2023-04-30T17:36:37.428Z,3.00
2023-04-30T17:39:12.332Z,4.38
2023-04-30T17:41:46.286Z,4.72
2023-04-30T17:44:20.342Z,3.22
2023-04-30T17:47:01.271Z,4.85
2023-04-30T17:49:42.776Z,5.82
2023-04-30T17:52:17.299Z,4.13
2023-04-30T17:54:51.251Z,7.78
2023-04-30T17:57:26.305Z,9.88
2023-04-30T18:00:00.257Z,7.32
2023-04-30T18:02:34.443Z,5.05
2023-04-30T18:05:01.787Z,6.07
2023-04-30T18:07:35.291Z,5.20
2023-04-30T18:10:09.301Z,3.15
2023-04-30T18:12:36.906Z,5.00
2023-04-30T18:15:15.346Z,3.67
2023-04-30T18:17:45.534Z,3.28
2023-04-30T18:20:19.269Z,3.90
2023-04-30T18:22:46.394Z,5.65
2023-04-30T18:25:23.342Z,3.60
2023-04-30T18:27:57.548Z,3.55
2023-04-30T18:30:31.277Z,5.25
2023-04-30T18:33:06.621Z,3.55
2023-04-30T18:35:34.715Z,3.25
2023-04-30T18:38:09.325Z,5.20
2023-04-30T18:40:37.900Z,6.13
2023-04-30T18:43:12.309Z,4.00
2023-04-30T18:45:46.310Z,4.70
2023-04-30T18:48:28.695Z,4.07
2023-04-30T18:51:02.313Z,5.85
2023-04-30T18:53:29.384Z,5.13
2023-04-30T18:56:05.302Z,4.07
2023-04-30T18:58:32.403Z,6.22
2023-04-30T19:01:06.354Z,3.90
2023-04-30T19:03:34.145Z,4.35
2023-04-30T19:06:08.441Z,4.45
2023-04-30T19:08:43.729Z,3.38
2023-04-30T19:11:20.458Z,4.88
2023-04-30T19:13:54.280Z,7.22
2023-04-30T19:16:29.383Z,6.25
2023-04-30T19:18:56.573Z,5.60
2023-04-30T19:21:24.221Z,5.25
2023-04-30T19:23:58.341Z,7.40
2023-04-30T19:26:32.321Z,4.82
2023-04-30T19:29:06.322Z,4.50
2023-04-30T19:31:35.408Z,4.10
2023-04-30T19:34:11.528Z,5.28
2023-04-30T19:36:47.286Z,4.20
2023-04-30T19:39:15.720Z,4.20
2023-04-30T19:41:57.356Z,4.35
2023-04-30T19:44:24.768Z,4.93
2023-04-30T19:46:59.353Z,6.15
2023-04-30T19:49:41.290Z,9.05
2023-04-30T19:52:16.386Z,5.00
2023-04-30T19:54:48.907Z,4.55
2023-04-30T19:57:24.311Z,4.63
2023-04-30T19:59:58.317Z,4.68
2023-04-30T20:02:35.716Z,4.85
2023-04-30T20:05:09.330Z,5.95
2023-04-30T20:07:36.522Z,8.05
2023-04-30T20:10:10.356Z,8.93
2023-04-30T20:12:37.356Z,12.50
2023-04-30T20:15:11.363Z,5.35
2023-04-30T20:17:45.462Z,4.40
2023-04-30T20:20:20.381Z,4.80
2023-04-30T20:22:51.697Z,3.58
2023-04-30T20:25:27.328Z,5.03
2023-04-30T20:27:55.961Z,3.85
2023-04-30T20:30:31.855Z,4.78
2023-04-30T20:32:59.003Z,4.75
2023-04-30T20:35:33.391Z,4.30
2023-04-30T20:38:00.652Z,4.38
2023-04-30T20:40:28.086Z,3.55
2023-04-30T20:43:01.301Z,3.70
2023-04-30T20:45:35.344Z,3.90
2023-04-30T20:48:09.735Z,3.30
2023-04-30T20:50:49.358Z,4.55
2023-04-30T20:53:16.653Z,4.60
2023-04-30T20:55:44.152Z,4.95
2023-04-30T20:58:17.331Z,4.30
2023-04-30T21:00:51.341Z,4.53
2023-04-30T21:03:18.812Z,5.40
2023-04-30T21:05:52.349Z,4.47
2023-04-30T21:08:19.839Z,3.78
2023-04-30T21:10:53.365Z,3.70
2023-04-30T21:13:20.850Z,4.28
2023-04-30T21:15:55.346Z,3.47
2023-04-30T21:18:29.332Z,5.60
2023-04-30T21:21:12.547Z,4.07
2023-04-30T21:23:48.235Z,4.40
2023-04-30T21:26:23.390Z,5.20
2023-04-30T21:28:53.023Z,4.28
2023-04-30T21:31:27.423Z,6.53
2023-04-30T21:34:01.372Z,4.57
2023-04-30T21:36:30.205Z,5.17
2023-04-30T21:39:06.318Z,7.00
2023-04-30T21:41:33.389Z,4.68
2023-04-30T21:44:07.413Z,5.10
2023-04-30T21:46:34.520Z,4.57
2023-04-30T21:49:08.392Z,4.00
2023-04-30T21:51:42.410Z,7.63
2023-04-30T21:54:16.306Z,8.13
2023-04-30T21:56:43.599Z,12.23
2023-04-30T21:59:19.310Z,8.47
2023-04-30T22:01:53.382Z,8.83
2023-04-30T22:04:28.369Z,7.67
2023-04-30T22:07:02.363Z,6.60
2023-04-30T22:09:38.747Z,6.60
2023-04-30T22:12:06.962Z,5.17
2023-04-30T22:14:44.336Z,4.57
2023-04-30T22:17:11.970Z,4.40
2023-04-30T22:19:47.840Z,4.23
2023-04-30T22:22:14.921Z,4.63
2023-04-30T22:24:50.848Z,5.47
2023-04-30T22:27:18.082Z,5.93
2023-04-30T22:29:57.475Z,4.33
2023-04-30T22:32:31.346Z,4.30
2023-04-30T22:34:58.588Z,4.20
2023-04-30T22:37:26.448Z,5.43
2023-04-30T22:40:01.374Z,6.17
2023-04-30T22:42:29.282Z,4.20
2023-04-30T22:45:03.397Z,6.30
2023-04-30T22:47:51.370Z,5.10
2023-04-30T22:50:25.333Z,6.50
2023-04-30T22:52:56.319Z,7.93
2023-04-30T22:55:33.186Z,4.60
2023-04-30T22:58:08.472Z,5.47
2023-04-30T23:00:35.997Z,4.37
2023-04-30T23:03:04.668Z,4.63
2023-04-30T23:05:38.443Z,4.37
2023-04-30T23:08:05.708Z,4.60
2023-04-30T23:10:39.393Z,4.30
2023-04-30T23:13:14.373Z,6.80
2023-04-30T23:15:48.388Z,4.43
2023-04-30T23:18:22.442Z,4.60
2023-04-30T23:20:58.626Z,8.17
2023-04-30T23:23:27.145Z,7.30
2023-04-30T23:26:02.372Z,7.33
2023-04-30T23:28:29.381Z,5.73
2023-04-30T23:31:05.376Z,5.13
2023-04-30T23:33:32.419Z,6.63
2023-04-30T23:36:06.426Z,7.87
2023-04-30T23:38:33.627Z,5.60
2023-04-30T23:41:08.516Z,7.23
2023-04-30T23:43:36.912Z,5.07
2023-04-30T23:46:10.399Z,4.03
2023-04-30T23:48:44.029Z,5.87
2023-04-30T23:51:18.339Z,4.40
2023-04-30T23:53:45.866Z,5.40
2023-04-30T23:56:19.436Z,5.03
2023-04-30T23:58:54.831Z,4.47
